| time (UTC) | temp F | wind direction | speed knots | gust knots | rain 1hr in | rain 24hr in | rain mn in | humidity % | barometer mb |
| 20260502223705 | 73 | 351 | 0.9 | 2.6 | 0.00 | 0.00 | 0.00 | 48 | 1012.7 |
| 20260502220705 | 73 | 89 | 1.7 | 5.2 | 0.00 | 0.00 | 0.00 | 48 | 1013.1 |
| 20260502220205 | 73 | 327 | 0.9 | 2.6 | 0.00 | 0.00 | 0.00 | 47 | 1013.0 |
| 20260502215705 | 73 | 350 | 0.9 | 2.6 | 0.00 | 0.00 | 0.00 | 48 | 1013.0 |
| 20260502215205 | 72 | 321 | 0.9 | 1.7 | 0.00 | 0.00 | 0.00 | 49 | 1013.0 |
| 20260502214205 | 72 | 338 | 0.9 | 2.6 | 0.00 | 0.00 | 0.00 | 48 | 1013.1 |
| 20260502212705 | 72 | 68 | 1.7 | 2.6 | 0.00 | 0.00 | 0.00 | 48 | 1013.4 |
| 20260502210704 | 71 | 327 | 1.7 | 2.6 | 0.00 | 0.00 | 0.00 | 48 | 1013.6 |
| 20260502205705 | 71 | 315 | 1.7 | 2.6 | 0.00 | 0.00 | 0.00 | 49 | 1013.6 |
| 20260502205205 | 71 | 253 | 1.7 | 7.8 | 0.00 | 0.00 | 0.00 | 50 | 1013.6 |
| 20260502204705 | 71 | 252 | 1.7 | 5.2 | 0.00 | 0.00 | 0.00 | 49 | 1013.7 |
| 20260502204205 | 72 | 325 | 0.9 | 5.2 | 0.00 | 0.00 | 0.00 | 49 | 1013.8 |
| 20260502203705 | 72 | 30 | 0.9 | 4.3 | 0.00 | 0.00 | 0.00 | 50 | 1013.8 |
| 20260502200704 | 71 | 318 | 0.9 | 1.7 | 0.00 | 0.00 | 0.00 | 56 | 1014.2 |
| 20260502195705 | 70 | 325 | 0.9 | 1.7 | 0.00 | 0.00 | 0.00 | 57 | 1014.3 |
| 20260502195205 | 69 | 327 | 0.9 | 2.6 | 0.00 | 0.00 | 0.00 | 56 | 1014.4 |
| 20260502194204 | 69 | 285 | 0.9 | 2.6 | 0.00 | 0.00 | 0.00 | 56 | 1014.4 |
| 20260502191704 | 67 | 334 | 0.9 | 2.6 | 0.00 | 0.00 | 0.00 | 62 | 1014.4 |
| 20260502191205 | 67 | 268 | 0.9 | 2.6 | 0.00 | 0.00 | 0.00 | 63 | 1014.5 |
| 20260502190704 | 66 | 347 | 0.9 | 2.6 | 0.00 | 0.00 | 0.00 | 65 | 1014.6 |
| 20260502185704 | 65 | 277 | 0.9 | 2.6 | 0.00 | 0.00 | 0.00 | 65 | 1014.5 |
| 20260502184205 | 64 | 145 | 0.9 | 5.2 | 0.00 | 0.00 | 0.00 | 66 | 1014.6 |
| 20260502182705 | 64 | 318 | 0.9 | 2.6 | 0.00 | 0.00 | 0.00 | 69 | 1014.8 |
| 20260502182205 | 64 | 305 | 1.7 | 5.2 | 0.00 | 0.00 | 0.00 | 68 | 1015.0 |
| 20260502170205 | 59 | 3 | 0.9 | 2.6 | 0.00 | 0.00 | 0.00 | 77 | 1015.3 |
| 20260502164205 | 59 | 303 | 0.9 | 2.6 | 0.00 | 0.00 | 0.00 | 79 | 1015.3 |
| 20260502162205 | 58 | 126 | 0.9 | 2.6 | 0.00 | 0.00 | 0.00 | 80 | 1015.2 |
| 20260502161705 | 58 | 315 | 0.9 | 2.6 | 0.00 | 0.00 | 0.00 | 80 | 1015.3 |
| 20260502152205 | 53 | 302 | 0.9 | 1.7 | 0.00 | 0.00 | 0.00 | 90 | 1015.3 |
| 20260502151705 | 53 | 285 | 0.0 | 1.7 | 0.00 | 0.00 | 0.00 | 90 | 1015.3 |
| 20260502151205 | 53 | 242 | 0.0 | 1.7 | 0.00 | 0.00 | 0.00 | 90 | 1015.2 |
| 20260502150705 | 52 | 304 | 0.0 | 1.7 | 0.00 | 0.00 | 0.00 | 90 | 1015.2 |
| 20260502150205 | 52 | 304 | 0.0 | 1.7 | 0.00 | 0.00 | 0.00 | 90 | 1015.2 |
| 20260502130205 | 51 | 56 | 0.0 | 0.0 | 0.00 | 0.00 | 0.00 | 89 | 1015.0 |
| 20260502123705 | 51 | 56 | 0.0 | 0.9 | 0.00 | 0.00 | 0.00 | 89 | 1015.0 |
| 20260502123204 | 51 | 56 | 0.0 | 0.9 | 0.00 | 0.00 | 0.00 | 88 | 1015.1 |
| 20260502122705 | 51 | 56 | 0.0 | 0.0 | 0.00 | 0.00 | 0.00 | 88 | 1015.2 |
| 20260502122205 | 51 | 56 | 0.0 | 0.0 | 0.00 | 0.00 | 0.00 | 88 | 1015.2 |
| 20260502121704 | 51 | 56 | 0.0 | 0.0 | 0.00 | 0.00 | 0.00 | 88 | 1015.1 |
| 20260502120704 | 51 | 56 | 0.0 | 0.0 | 0.00 | 0.00 | 0.00 | 88 | 1015.2 |
| 20260502120204 | 51 | 56 | 0.0 | 0.0 | 0.00 | 0.00 | 0.00 | 88 | 1015.3 |
| 20260502115704 | 51 | 56 | 0.0 | 0.0 | 0.00 | 0.00 | 0.00 | 87 | 1015.4 |
| 20260502114204 | 52 | 56 | 0.0 | 0.0 | 0.00 | 0.00 | 0.00 | 86 | 1015.6 |
| 20260502112705 | 52 | 56 | 0.0 | 0.0 | 0.00 | 0.00 | 0.00 | 86 | 1015.7 |
| 20260502111705 | 52 | 56 | 0.0 | 0.0 | 0.00 | 0.00 | 0.00 | 86 | 1015.5 |
| 20260502110704 | 52 | 56 | 0.0 | 0.0 | 0.00 | 0.00 | 0.00 | 87 | 1015.3 |
| 20260502110204 | 52 | 56 | 0.0 | 0.0 | 0.00 | 0.00 | 0.00 | 86 | 1015.1 |
| 20260502105705 | 52 | 56 | 0.0 | 0.9 | 0.00 | 0.00 | 0.00 | 86 | 1015.1 |
| 20260502104204 | 52 | 56 | 0.0 | 0.0 | 0.00 | 0.00 | 0.00 | 85 | 1014.8 |
| 20260502102705 | 52 | 56 | 0.0 | 1.7 | 0.00 | 0.00 | 0.00 | 85 | 1014.8 |
| 20260502102205 | 52 | 56 | 0.0 | 1.7 | 0.00 | 0.00 | 0.00 | 85 | 1014.9 |
| 20260502101705 | 52 | 56 | 0.0 | 1.7 | 0.00 | 0.00 | 0.00 | 84 | 1014.8 |
| 20260502101205 | 52 | 56 | 0.0 | 0.0 | 0.00 | 0.00 | 0.00 | 84 | 1014.9 |
| 20260502100205 | 52 | 56 | 0.0 | 1.7 | 0.00 | 0.00 | 0.00 | 84 | 1014.9 |
| 20260502091205 | 52 | 56 | 0.0 | 0.0 | 0.00 | 0.00 | 0.00 | 84 | 1015.0 |
| 20260502090205 | 53 | 56 | 0.0 | 0.0 | 0.00 | 0.00 | 0.00 | 83 | 1015.1 |
| 20260502065205 | 55 | 56 | 0.0 | 0.0 | 0.00 | 0.00 | 0.00 | 78 | 1014.6 |
| 20260502064705 | 56 | 56 | 0.0 | 0.0 | 0.00 | 0.00 | 0.00 | 78 | 1014.6 |
| 20260502061705 | 56 | 56 | 0.0 | 0.0 | 0.00 | 0.00 | 0.00 | 77 | 1014.5 |
| 20260502061204 | 56 | 56 | 0.0 | 0.0 | 0.00 | 0.00 | 0.00 | 77 | 1014.5 |
| 20260502054704 | 56 | 56 | 0.0 | 0.9 | 0.00 | 0.00 | 0.00 | 76 | 1014.4 |
| 20260502054205 | 56 | 56 | 0.0 | 0.0 | 0.00 | 0.00 | 0.00 | 76 | 1014.4 |
| 20260502053705 | 56 | 56 | 0.0 | 0.0 | 0.00 | 0.00 | 0.00 | 76 | 1014.4 |
| 20260502053205 | 57 | 56 | 0.0 | 0.9 | 0.00 | 0.00 | 0.00 | 76 | 1014.4 |
| 20260502052705 | 57 | 56 | 0.0 | 1.7 | 0.00 | 0.00 | 0.00 | 74 | 1014.4 |
| 20260502050705 | 58 | 56 | 0.0 | 0.0 | 0.00 | 0.00 | 0.00 | 73 | 1014.3 |
| 20260502050205 | 58 | 56 | 0.0 | 1.7 | 0.00 | 0.00 | 0.00 | 72 | 1014.2 |
| 20260502045704 | 58 | 194 | 0.0 | 1.7 | 0.00 | 0.00 | 0.00 | 72 | 1014.2 |
| 20260502043705 | 59 | 61 | 0.0 | 0.9 | 0.00 | 0.00 | 0.00 | 72 | 1013.8 |
| 20260502043205 | 59 | 61 | 0.0 | 1.7 | 0.00 | 0.00 | 0.00 | 72 | 1013.8 |
| 20260502042205 | 59 | 90 | 0.9 | 1.7 | 0.00 | 0.00 | 0.00 | 72 | 1013.5 |
| 20260502041705 | 59 | 197 | 0.0 | 1.7 | 0.00 | 0.00 | 0.00 | 73 | 1013.5 |
| 20260502041205 | 59 | 178 | 0.0 | 1.7 | 0.00 | 0.00 | 0.00 | 71 | 1013.5 |
| 20260502040705 | 59 | 208 | 0.0 | 1.7 | 0.00 | 0.00 | 0.00 | 71 | 1013.5 |
| 20260502040205 | 59 | 235 | 0.0 | 1.7 | 0.00 | 0.00 | 0.00 | 72 | 1013.5 |
| 20260502035204 | 60 | 235 | 0.0 | 0.0 | 0.00 | 0.00 | 0.00 | 70 | 1013.4 |
| 20260502032705 | 61 | 259 | 0.0 | 1.7 | 0.00 | 0.00 | 0.00 | 66 | 1013.1 |
| 20260502032204 | 61 | 260 | 0.0 | 1.7 | 0.00 | 0.00 | 0.00 | 64 | 1013.1 |
| 20260502031205 | 62 | 260 | 0.9 | 2.6 | 0.00 | 0.00 | 0.00 | 64 | 1012.9 |
| 20260502030705 | 62 | 227 | 0.0 | 1.7 | 0.00 | 0.00 | 0.00 | 67 | 1012.8 |
| 20260502025705 | 63 | 210 | 0.0 | 1.7 | 0.00 | 0.00 | 0.00 | 67 | 1012.9 |
| 20260502024205 | 64 | 39 | 0.0 | 1.7 | 0.00 | 0.00 | 0.00 | 66 | 1012.6 |
| 20260502021705 | 65 | 337 | 0.9 | 1.7 | 0.00 | 0.00 | 0.00 | 60 | 1012.4 |
| 20260502021204 | 65 | 317 | 0.0 | 1.7 | 0.00 | 0.00 | 0.00 | 56 | 1012.7 |
| 20260502020704 | 65 | 35 | 0.9 | 2.6 | 0.00 | 0.00 | 0.00 | 57 | 1012.7 |
| 20260502015704 | 66 | 349 | 0.9 | 1.7 | 0.00 | 0.00 | 0.00 | 60 | 1012.6 |
| 20260502014705 | 66 | 88 | 0.0 | 1.7 | 0.00 | 0.00 | 0.00 | 61 | 1012.5 |
| 20260502014204 | 66 | 94 | 0.9 | 1.7 | 0.00 | 0.00 | 0.00 | 59 | 1012.5 |
| 20260502012204 | 67 | 355 | 0.9 | 2.6 | 0.00 | 0.00 | 0.00 | 56 | 1012.8 |
| 20260502011204 | 68 | 52 | 0.9 | 2.6 | 0.00 | 0.00 | 0.00 | 56 | 1012.7 |
| 20260502010705 | 68 | 359 | 0.0 | 1.7 | 0.00 | 0.00 | 0.00 | 58 | 1012.8 |
| 20260502010204 | 68 | 345 | 1.7 | 2.6 | 0.00 | 0.00 | 0.00 | 55 | 1012.8 |
| 20260502005204 | 68 | 344 | 0.9 | 1.7 | 0.00 | 0.00 | 0.00 | 57 | 1012.7 |
| 20260502004704 | 68 | 18 | 0.9 | 2.6 | 0.00 | 0.00 | 0.00 | 57 | 1012.7 |
| 20260502003204 | 68 | 335 | 0.9 | 2.6 | 0.00 | 0.00 | 0.00 | 53 | 1012.7 |
| 20260502002204 | 68 | 323 | 0.9 | 2.6 | 0.00 | 0.00 | 0.00 | 53 | 1012.6 |
| 20260502001705 | 68 | 344 | 0.9 | 4.3 | 0.00 | 0.00 | 0.00 | 51 | 1012.7 |
| 20260502000705 | 68 | 324 | 0.9 | 2.6 | 0.00 | 0.00 | 0.00 | 52 | 1012.7 |
| 20260502000204 | 69 | 340 | 0.9 | 2.6 | 0.00 | 0.00 | 0.00 | 52 | 1012.7 |
| 20260501235704 | 69 | 97 | 0.9 | 2.6 | 0.00 | 0.00 | 0.00 | 52 | 1012.7 |
| 20260501235204 | 69 | 44 | 0.9 | 2.6 | 0.00 | 0.00 | 0.00 | 52 | 1012.7 |
| 20260501234204 | 69 | 347 | 0.9 | 2.6 | 0.00 | 0.00 | 0.00 | 53 | 1012.8 |
| 20260501230204 | 69 | 341 | 0.9 | 0.9 | 0.00 | 0.00 | 0.00 | 57 | 1013.1 |
| 20260501225704 | 69 | 343 | 0.9 | 1.7 | 0.00 | 0.00 | 0.00 | 57 | 1013.2 |